sensor_id;sensor_type;location;lat;lon;timestamp;temperature;humidity
18160;DHT22;9205;52.032;4.314;2023-08-24T00:02:06;18.60;1.00
18160;DHT22;9205;52.032;4.314;2023-08-24T00:04:33;18.60;1.00
18160;DHT22;9205;52.032;4.314;2023-08-24T00:07:00;18.70;1.00
18160;DHT22;9205;52.032;4.314;2023-08-24T00:09:27;18.70;1.00
18160;DHT22;9205;52.032;4.314;2023-08-24T00:11:55;18.70;1.00
18160;DHT22;9205;52.032;4.314;2023-08-24T00:14:22;18.70;1.00
18160;DHT22;9205;52.032;4.314;2023-08-24T00:16:50;18.70;1.00
18160;DHT22;9205;52.032;4.314;2023-08-24T00:19:18;18.60;1.00
18160;DHT22;9205;52.032;4.314;2023-08-24T00:21:45;18.70;1.00
18160;DHT22;9205;52.032;4.314;2023-08-24T00:24:12;18.70;1.00
18160;DHT22;9205;52.032;4.314;2023-08-24T00:26:39;18.70;1.00
18160;DHT22;9205;52.032;4.314;2023-08-24T00:29:06;18.70;1.00
18160;DHT22;9205;52.032;4.314;2023-08-24T00:31:34;18.60;1.00
18160;DHT22;9205;52.032;4.314;2023-08-24T00:34:02;18.70;1.00
18160;DHT22;9205;52.032;4.314;2023-08-24T00:36:29;18.70;1.00
18160;DHT22;9205;52.032;4.314;2023-08-24T00:38:57;18.70;1.00
18160;DHT22;9205;52.032;4.314;2023-08-24T00:41:24;18.80;1.00
18160;DHT22;9205;52.032;4.314;2023-08-24T00:43:51;18.60;1.00
18160;DHT22;9205;52.032;4.314;2023-08-24T00:46:19;18.70;1.00
18160;DHT22;9205;52.032;4.314;2023-08-24T00:48:48;18.70;1.00
18160;DHT22;9205;52.032;4.314;2023-08-24T00:51:18;18.70;1.00
18160;DHT22;9205;52.032;4.314;2023-08-24T00:53:46;18.60;1.00
18160;DHT22;9205;52.032;4.314;2023-08-24T00:56:13;18.70;1.00
18160;DHT22;9205;52.032;4.314;2023-08-24T00:58:41;18.70;1.00
18160;DHT22;9205;52.032;4.314;2023-08-24T01:01:08;18.70;1.00
18160;DHT22;9205;52.032;4.314;2023-08-24T01:03:36;18.60;1.00
18160;DHT22;9205;52.032;4.314;2023-08-24T01:06:05;18.60;1.00
18160;DHT22;9205;52.032;4.314;2023-08-24T01:08:34;18.60;1.00
18160;DHT22;9205;52.032;4.314;2023-08-24T01:11:05;18.70;1.00
18160;DHT22;9205;52.032;4.314;2023-08-24T01:13:42;18.70;1.00
18160;DHT22;9205;52.032;4.314;2023-08-24T01:16:18;18.70;1.00
18160;DHT22;9205;52.032;4.314;2023-08-24T01:18:54;18.60;1.00
18160;DHT22;9205;52.032;4.314;2023-08-24T01:21:25;18.50;13.30
18160;DHT22;9205;52.032;4.314;2023-08-24T01:24:03;18.50;50.60
18160;DHT22;9205;52.032;4.314;2023-08-24T01:26:46;18.50;94.70
18160;DHT22;9205;52.032;4.314;2023-08-24T01:29:16;18.50;99.90
18160;DHT22;9205;52.032;4.314;2023-08-24T01:31:44;18.30;99.90
18160;DHT22;9205;52.032;4.314;2023-08-24T01:34:15;18.30;99.90
18160;DHT22;9205;52.032;4.314;2023-08-24T01:36:43;18.20;99.90
18160;DHT22;9205;52.032;4.314;2023-08-24T01:39:18;18.20;99.90
18160;DHT22;9205;52.032;4.314;2023-08-24T01:41:52;18.20;99.90
18160;DHT22;9205;52.032;4.314;2023-08-24T01:44:25;18.30;99.90
18160;DHT22;9205;52.032;4.314;2023-08-24T01:46:56;18.10;99.90
18160;DHT22;9205;52.032;4.314;2023-08-24T01:49:32;18.20;99.90
18160;DHT22;9205;52.032;4.314;2023-08-24T01:52:01;18.00;99.90
18160;DHT22;9205;52.032;4.314;2023-08-24T01:54:30;18.10;99.90
18160;DHT22;9205;52.032;4.314;2023-08-24T01:56:59;18.10;99.90
18160;DHT22;9205;52.032;4.314;2023-08-24T01:59:27;18.10;99.90
18160;DHT22;9205;52.032;4.314;2023-08-24T02:01:54;18.10;99.90
18160;DHT22;9205;52.032;4.314;2023-08-24T02:04:22;18.00;99.90
18160;DHT22;9205;52.032;4.314;2023-08-24T02:06:49;18.10;99.90
18160;DHT22;9205;52.032;4.314;2023-08-24T02:09:17;18.00;99.90
18160;DHT22;9205;52.032;4.314;2023-08-24T02:11:44;17.90;99.90
18160;DHT22;9205;52.032;4.314;2023-08-24T02:14:13;18.00;99.90
18160;DHT22;9205;52.032;4.314;2023-08-24T02:16:40;18.00;99.90
18160;DHT22;9205;52.032;4.314;2023-08-24T02:19:07;18.00;99.90
18160;DHT22;9205;52.032;4.314;2023-08-24T02:21:35;18.10;99.90
18160;DHT22;9205;52.032;4.314;2023-08-24T02:24:04;17.90;99.90
18160;DHT22;9205;52.032;4.314;2023-08-24T02:26:31;17.90;99.90
18160;DHT22;9205;52.032;4.314;2023-08-24T02:28:59;17.90;99.90
18160;DHT22;9205;52.032;4.314;2023-08-24T02:31:28;17.80;99.90
18160;DHT22;9205;52.032;4.314;2023-08-24T02:33:55;17.80;99.90
18160;DHT22;9205;52.032;4.314;2023-08-24T02:36:22;17.80;99.90
18160;DHT22;9205;52.032;4.314;2023-08-24T02:38:49;17.80;99.90
18160;DHT22;9205;52.032;4.314;2023-08-24T02:41:17;17.90;99.90
18160;DHT22;9205;52.032;4.314;2023-08-24T02:43:45;18.00;99.90
18160;DHT22;9205;52.032;4.314;2023-08-24T02:46:12;17.90;99.90
18160;DHT22;9205;52.032;4.314;2023-08-24T02:48:40;17.90;99.90
18160;DHT22;9205;52.032;4.314;2023-08-24T02:51:08;17.80;99.90
18160;DHT22;9205;52.032;4.314;2023-08-24T02:53:36;17.90;99.90
18160;DHT22;9205;52.032;4.314;2023-08-24T02:56:04;17.90;99.90
18160;DHT22;9205;52.032;4.314;2023-08-24T02:58:31;17.70;99.90
18160;DHT22;9205;52.032;4.314;2023-08-24T03:00:58;17.80;99.90
18160;DHT22;9205;52.032;4.314;2023-08-24T03:03:26;17.90;99.90
18160;DHT22;9205;52.032;4.314;2023-08-24T03:05:57;17.80;99.90
18160;DHT22;9205;52.032;4.314;2023-08-24T03:08:28;17.80;99.90
18160;DHT22;9205;52.032;4.314;2023-08-24T03:10:57;17.60;99.90
18160;DHT22;9205;52.032;4.314;2023-08-24T03:13:25;17.80;99.90
18160;DHT22;9205;52.032;4.314;2023-08-24T03:15:54;17.70;99.90
18160;DHT22;9205;52.032;4.314;2023-08-24T03:18:23;17.70;99.90
18160;DHT22;9205;52.032;4.314;2023-08-24T03:20:51;17.60;99.90
18160;DHT22;9205;52.032;4.314;2023-08-24T03:23:19;17.60;99.90
18160;DHT22;9205;52.032;4.314;2023-08-24T03:25:46;17.70;99.90
18160;DHT22;9205;52.032;4.314;2023-08-24T03:28:14;17.70;99.90
18160;DHT22;9205;52.032;4.314;2023-08-24T03:30:46;17.70;99.90
18160;DHT22;9205;52.032;4.314;2023-08-24T03:33:15;17.60;99.90
18160;DHT22;9205;52.032;4.314;2023-08-24T03:35:42;17.50;99.90
18160;DHT22;9205;52.032;4.314;2023-08-24T03:38:09;17.50;99.90
18160;DHT22;9205;52.032;4.314;2023-08-24T03:40:38;17.50;99.90
18160;DHT22;9205;52.032;4.314;2023-08-24T03:43:05;17.50;99.90
18160;DHT22;9205;52.032;4.314;2023-08-24T03:45:32;17.50;99.90
18160;DHT22;9205;52.032;4.314;2023-08-24T03:48:00;17.70;99.90
18160;DHT22;9205;52.032;4.314;2023-08-24T03:50:27;17.70;99.90
18160;DHT22;9205;52.032;4.314;2023-08-24T03:52:54;17.50;99.90
18160;DHT22;9205;52.032;4.314;2023-08-24T03:55:22;17.50;99.90
18160;DHT22;9205;52.032;4.314;2023-08-24T03:57:50;17.60;99.90
18160;DHT22;9205;52.032;4.314;2023-08-24T04:00:20;17.70;99.90
18160;DHT22;9205;52.032;4.314;2023-08-24T04:02:47;17.60;99.90
18160;DHT22;9205;52.032;4.314;2023-08-24T04:05:23;17.60;99.90
18160;DHT22;9205;52.032;4.314;2023-08-24T04:07:50;17.80;99.90
18160;DHT22;9205;52.032;4.314;2023-08-24T04:10:18;17.60;99.90
18160;DHT22;9205;52.032;4.314;2023-08-24T04:12:45;17.60;99.90
18160;DHT22;9205;52.032;4.314;2023-08-24T04:15:14;17.60;99.90
18160;DHT22;9205;52.032;4.314;2023-08-24T04:17:41;17.70;99.90
18160;DHT22;9205;52.032;4.314;2023-08-24T04:20:09;17.70;99.90
18160;DHT22;9205;52.032;4.314;2023-08-24T04:22:37;17.80;99.90
18160;DHT22;9205;52.032;4.314;2023-08-24T04:25:05;17.60;99.90
18160;DHT22;9205;52.032;4.314;2023-08-24T04:27:32;17.70;99.90
18160;DHT22;9205;52.032;4.314;2023-08-24T04:30:00;17.70;99.90
18160;DHT22;9205;52.032;4.314;2023-08-24T04:32:31;17.60;99.90
18160;DHT22;9205;52.032;4.314;2023-08-24T04:34:59;17.80;99.90
18160;DHT22;9205;52.032;4.314;2023-08-24T04:37:26;17.90;99.90
18160;DHT22;9205;52.032;4.314;2023-08-24T04:39:53;17.90;99.90
18160;DHT22;9205;52.032;4.314;2023-08-24T04:42:21;17.70;99.90
18160;DHT22;9205;52.032;4.314;2023-08-24T04:44:48;17.90;99.90
18160;DHT22;9205;52.032;4.314;2023-08-24T04:47:17;17.60;99.90
18160;DHT22;9205;52.032;4.314;2023-08-24T04:49:45;17.90;99.90
18160;DHT22;9205;52.032;4.314;2023-08-24T04:52:12;17.70;99.90
18160;DHT22;9205;52.032;4.314;2023-08-24T04:54:40;17.80;99.90
18160;DHT22;9205;52.032;4.314;2023-08-24T04:57:07;17.70;99.90
18160;DHT22;9205;52.032;4.314;2023-08-24T04:59:35;17.90;99.90
18160;DHT22;9205;52.032;4.314;2023-08-24T05:02:02;17.80;99.90
18160;DHT22;9205;52.032;4.314;2023-08-24T05:04:29;17.70;99.90
18160;DHT22;9205;52.032;4.314;2023-08-24T05:06:58;17.70;99.90
18160;DHT22;9205;52.032;4.314;2023-08-24T05:09:25;17.90;99.90
18160;DHT22;9205;52.032;4.314;2023-08-24T05:11:52;17.70;99.90
18160;DHT22;9205;52.032;4.314;2023-08-24T05:14:20;17.80;99.90
18160;DHT22;9205;52.032;4.314;2023-08-24T05:16:47;17.80;99.90
18160;DHT22;9205;52.032;4.314;2023-08-24T05:19:14;17.90;99.90
18160;DHT22;9205;52.032;4.314;2023-08-24T05:21:41;17.70;99.90
18160;DHT22;9205;52.032;4.314;2023-08-24T05:24:10;17.70;99.90
18160;DHT22;9205;52.032;4.314;2023-08-24T05:26:37;17.90;99.90
18160;DHT22;9205;52.032;4.314;2023-08-24T05:29:04;17.70;99.90
18160;DHT22;9205;52.032;4.314;2023-08-24T05:31:32;17.80;99.90
18160;DHT22;9205;52.032;4.314;2023-08-24T05:33:59;18.00;99.90
18160;DHT22;9205;52.032;4.314;2023-08-24T05:36:26;17.80;99.90
18160;DHT22;9205;52.032;4.314;2023-08-24T05:38:53;18.00;99.90
18160;DHT22;9205;52.032;4.314;2023-08-24T05:41:23;17.80;99.90
18160;DHT22;9205;52.032;4.314;2023-08-24T05:43:51;18.00;99.90
18160;DHT22;9205;52.032;4.314;2023-08-24T05:46:18;17.80;99.90
18160;DHT22;9205;52.032;4.314;2023-08-24T05:48:46;17.90;99.90
18160;DHT22;9205;52.032;4.314;2023-08-24T05:51:13;17.90;99.90
18160;DHT22;9205;52.032;4.314;2023-08-24T05:53:40;17.90;99.90
18160;DHT22;9205;52.032;4.314;2023-08-24T05:56:08;18.10;99.90
18160;DHT22;9205;52.032;4.314;2023-08-24T05:58:36;18.10;99.90
18160;DHT22;9205;52.032;4.314;2023-08-24T06:01:03;17.90;99.90
18160;DHT22;9205;52.032;4.314;2023-08-24T06:03:30;18.20;99.90
18160;DHT22;9205;52.032;4.314;2023-08-24T06:06:02;18.10;99.90
18160;DHT22;9205;52.032;4.314;2023-08-24T06:08:30;18.00;99.90
18160;DHT22;9205;52.032;4.314;2023-08-24T06:10:57;18.00;99.90
18160;DHT22;9205;52.032;4.314;2023-08-24T06:13:25;18.20;99.90
18160;DHT22;9205;52.032;4.314;2023-08-24T06:15:54;18.00;99.90
18160;DHT22;9205;52.032;4.314;2023-08-24T06:18:21;18.30;99.90
18160;DHT22;9205;52.032;4.314;2023-08-24T06:20:48;18.30;99.90
18160;DHT22;9205;52.032;4.314;2023-08-24T06:23:16;18.30;99.90
18160;DHT22;9205;52.032;4.314;2023-08-24T06:25:44;18.40;99.90
18160;DHT22;9205;52.032;4.314;2023-08-24T06:28:12;18.40;99.90
18160;DHT22;9205;52.032;4.314;2023-08-24T06:30:39;18.50;99.90
18160;DHT22;9205;52.032;4.314;2023-08-24T06:33:09;18.30;99.90
18160;DHT22;9205;52.032;4.314;2023-08-24T06:35:37;18.40;99.90
18160;DHT22;9205;52.032;4.314;2023-08-24T06:38:04;18.50;99.90
18160;DHT22;9205;52.032;4.314;2023-08-24T06:40:32;18.60;99.90
18160;DHT22;9205;52.032;4.314;2023-08-24T06:42:59;18.60;99.90
18160;DHT22;9205;52.032;4.314;2023-08-24T06:45:26;18.80;99.90
18160;DHT22;9205;52.032;4.314;2023-08-24T06:47:54;18.80;99.90
18160;DHT22;9205;52.032;4.314;2023-08-24T06:50:22;18.60;99.90
18160;DHT22;9205;52.032;4.314;2023-08-24T06:52:49;18.80;99.90
18160;DHT22;9205;52.032;4.314;2023-08-24T06:55:17;18.70;99.90
18160;DHT22;9205;52.032;4.314;2023-08-24T06:57:48;18.90;99.90
18160;DHT22;9205;52.032;4.314;2023-08-24T07:00:16;19.00;99.90
18160;DHT22;9205;52.032;4.314;2023-08-24T07:02:46;18.90;99.90
18160;DHT22;9205;52.032;4.314;2023-08-24T07:05:13;18.90;99.90
18160;DHT22;9205;52.032;4.314;2023-08-24T07:07:45;19.10;99.90
18160;DHT22;9205;52.032;4.314;2023-08-24T07:10:14;19.00;99.90
18160;DHT22;9205;52.032;4.314;2023-08-24T07:12:41;19.10;99.90
18160;DHT22;9205;52.032;4.314;2023-08-24T07:15:10;19.30;99.90
18160;DHT22;9205;52.032;4.314;2023-08-24T07:17:38;19.50;99.90
18160;DHT22;9205;52.032;4.314;2023-08-24T07:20:06;19.40;99.90
18160;DHT22;9205;52.032;4.314;2023-08-24T07:22:34;19.50;99.90
18160;DHT22;9205;52.032;4.314;2023-08-24T07:25:04;19.70;99.90
18160;DHT22;9205;52.032;4.314;2023-08-24T07:27:33;19.90;99.90
18160;DHT22;9205;52.032;4.314;2023-08-24T07:30:00;19.80;99.90
18160;DHT22;9205;52.032;4.314;2023-08-24T07:32:31;20.00;99.90
18160;DHT22;9205;52.032;4.314;2023-08-24T07:34:59;19.80;99.90
18160;DHT22;9205;52.032;4.314;2023-08-24T07:37:27;19.90;99.90
18160;DHT22;9205;52.032;4.314;2023-08-24T07:39:54;20.00;99.90
18160;DHT22;9205;52.032;4.314;2023-08-24T07:42:23;20.10;99.90
18160;DHT22;9205;52.032;4.314;2023-08-24T07:44:50;20.10;99.90
18160;DHT22;9205;52.032;4.314;2023-08-24T07:47:18;20.20;99.90
18160;DHT22;9205;52.032;4.314;2023-08-24T07:49:45;20.30;99.90
18160;DHT22;9205;52.032;4.314;2023-08-24T07:52:12;20.40;99.90
18160;DHT22;9205;52.032;4.314;2023-08-24T07:54:40;20.60;99.90
18160;DHT22;9205;52.032;4.314;2023-08-24T07:57:08;20.60;99.90
18160;DHT22;9205;52.032;4.314;2023-08-24T07:59:37;20.70;99.90
18160;DHT22;9205;52.032;4.314;2023-08-24T08:02:04;20.50;99.90
18160;DHT22;9205;52.032;4.314;2023-08-24T08:04:31;20.70;99.90
18160;DHT22;9205;52.032;4.314;2023-08-24T08:06:58;20.60;99.90
18160;DHT22;9205;52.032;4.314;2023-08-24T08:09:26;20.80;99.90
18160;DHT22;9205;52.032;4.314;2023-08-24T08:11:53;20.90;99.90
18160;DHT22;9205;52.032;4.314;2023-08-24T08:14:20;20.70;99.90
18160;DHT22;9205;52.032;4.314;2023-08-24T08:16:49;20.90;99.90
18160;DHT22;9205;52.032;4.314;2023-08-24T08:19:16;20.90;99.90
18160;DHT22;9205;52.032;4.314;2023-08-24T08:21:45;20.80;99.90
18160;DHT22;9205;52.032;4.314;2023-08-24T08:24:12;20.90;99.90
18160;DHT22;9205;52.032;4.314;2023-08-24T08:26:39;21.10;99.90
18160;DHT22;9205;52.032;4.314;2023-08-24T08:29:06;21.00;99.90
18160;DHT22;9205;52.032;4.314;2023-08-24T08:31:33;21.10;99.90
18160;DHT22;9205;52.032;4.314;2023-08-24T08:34:02;21.20;99.90
18160;DHT22;9205;52.032;4.314;2023-08-24T08:36:30;21.20;99.90
18160;DHT22;9205;52.032;4.314;2023-08-24T08:38:58;21.30;99.90
18160;DHT22;9205;52.032;4.314;2023-08-24T08:41:27;21.30;99.90
18160;DHT22;9205;52.032;4.314;2023-08-24T08:44:05;21.20;99.90
18160;DHT22;9205;52.032;4.314;2023-08-24T08:46:33;21.30;99.90
18160;DHT22;9205;52.032;4.314;2023-08-24T08:49:02;21.50;99.90
18160;DHT22;9205;52.032;4.314;2023-08-24T08:51:30;21.50;99.90
18160;DHT22;9205;52.032;4.314;2023-08-24T08:53:58;21.50;99.90
18160;DHT22;9205;52.032;4.314;2023-08-24T08:56:26;21.40;99.90
18160;DHT22;9205;52.032;4.314;2023-08-24T08:58:54;21.70;99.90
18160;DHT22;9205;52.032;4.314;2023-08-24T09:01:25;21.70;99.90
18160;DHT22;9205;52.032;4.314;2023-08-24T09:03:53;21.60;99.90
18160;DHT22;9205;52.032;4.314;2023-08-24T09:06:22;21.70;99.90
18160;DHT22;9205;52.032;4.314;2023-08-24T09:08:50;21.70;99.90
18160;DHT22;9205;52.032;4.314;2023-08-24T09:11:19;21.90;99.90
18160;DHT22;9205;52.032;4.314;2023-08-24T09:13:47;21.80;99.90
18160;DHT22;9205;52.032;4.314;2023-08-24T09:16:15;21.90;99.90
18160;DHT22;9205;52.032;4.314;2023-08-24T09:18:45;21.80;99.90
18160;DHT22;9205;52.032;4.314;2023-08-24T09:21:14;21.90;99.90
18160;DHT22;9205;52.032;4.314;2023-08-24T09:23:45;21.80;99.90
18160;DHT22;9205;52.032;4.314;2023-08-24T09:26:27;21.90;99.90
18160;DHT22;9205;52.032;4.314;2023-08-24T09:28:55;21.80;99.90
18160;DHT22;9205;52.032;4.314;2023-08-24T09:31:23;21.70;99.90
18160;DHT22;9205;52.032;4.314;2023-08-24T09:34:00;21.70;99.90
18160;DHT22;9205;52.032;4.314;2023-08-24T09:36:31;21.60;99.90
18160;DHT22;9205;52.032;4.314;2023-08-24T09:39:00;21.80;99.90
18160;DHT22;9205;52.032;4.314;2023-08-24T09:41:39;21.60;99.90
18160;DHT22;9205;52.032;4.314;2023-08-24T09:44:07;21.70;99.90
18160;DHT22;9205;52.032;4.314;2023-08-24T09:46:36;21.50;99.90
18160;DHT22;9205;52.032;4.314;2023-08-24T09:49:05;21.60;99.90
18160;DHT22;9205;52.032;4.314;2023-08-24T09:51:33;21.70;99.90
18160;DHT22;9205;52.032;4.314;2023-08-24T09:54:05;21.70;99.90
18160;DHT22;9205;52.032;4.314;2023-08-24T09:56:35;21.70;99.90
18160;DHT22;9205;52.032;4.314;2023-08-24T09:59:11;21.60;99.90
18160;DHT22;9205;52.032;4.314;2023-08-24T10:01:42;21.60;99.90
18160;DHT22;9205;52.032;4.314;2023-08-24T10:04:13;21.60;99.90
18160;DHT22;9205;52.032;4.314;2023-08-24T10:06:42;21.80;99.90
18160;DHT22;9205;52.032;4.314;2023-08-24T10:09:25;21.70;99.90
18160;DHT22;9205;52.032;4.314;2023-08-24T10:11:58;21.70;99.90
18160;DHT22;9205;52.032;4.314;2023-08-24T10:14:32;21.90;99.90
18160;DHT22;9205;52.032;4.314;2023-08-24T10:17:05;22.00;99.90
18160;DHT22;9205;52.032;4.314;2023-08-24T10:19:34;21.90;99.90
18160;DHT22;9205;52.032;4.314;2023-08-24T10:22:03;22.20;99.90
18160;DHT22;9205;52.032;4.314;2023-08-24T10:24:33;22.00;99.90
18160;DHT22;9205;52.032;4.314;2023-08-24T10:27:03;22.10;99.90
18160;DHT22;9205;52.032;4.314;2023-08-24T10:29:30;22.20;99.90
18160;DHT22;9205;52.032;4.314;2023-08-24T10:31:57;22.40;99.90
18160;DHT22;9205;52.032;4.314;2023-08-24T10:34:25;22.20;99.90
18160;DHT22;9205;52.032;4.314;2023-08-24T10:36:52;22.30;94.60
18160;DHT22;9205;52.032;4.314;2023-08-24T10:39:27;22.20;99.90
18160;DHT22;9205;52.032;4.314;2023-08-24T10:41:56;22.30;99.90
18160;DHT22;9205;52.032;4.314;2023-08-24T10:44:34;22.40;99.90
18160;DHT22;9205;52.032;4.314;2023-08-24T10:47:12;22.20;70.20
18160;DHT22;9205;52.032;4.314;2023-08-24T10:49:42;22.40;80.00
18160;DHT22;9205;52.032;4.314;2023-08-24T10:52:20;22.60;90.10
18160;DHT22;9205;52.032;4.314;2023-08-24T10:54:49;22.60;79.90
18160;DHT22;9205;52.032;4.314;2023-08-24T10:57:20;22.60;57.90
18160;DHT22;9205;52.032;4.314;2023-08-24T10:59:58;22.60;38.20
18160;DHT22;9205;52.032;4.314;2023-08-24T11:02:26;22.60;48.60
18160;DHT22;9205;52.032;4.314;2023-08-24T11:05:14;22.40;49.80
18160;DHT22;9205;52.032;4.314;2023-08-24T11:07:49;22.40;58.30
18160;DHT22;9205;52.032;4.314;2023-08-24T11:10:18;22.40;73.80
18160;DHT22;9205;52.032;4.314;2023-08-24T11:13:12;22.50;89.10
18160;DHT22;9205;52.032;4.314;2023-08-24T11:15:42;22.50;72.10
18160;DHT22;9205;52.032;4.314;2023-08-24T11:18:14;22.30;60.90
18160;DHT22;9205;52.032;4.314;2023-08-24T11:20:48;22.40;52.00
18160;DHT22;9205;52.032;4.314;2023-08-24T11:23:17;22.40;39.80
18160;DHT22;9205;52.032;4.314;2023-08-24T11:25:46;22.40;36.00
18160;DHT22;9205;52.032;4.314;2023-08-24T11:28:19;22.50;41.20
18160;DHT22;9205;52.032;4.314;2023-08-24T11:30:47;22.30;24.50
18160;DHT22;9205;52.032;4.314;2023-08-24T11:33:14;22.40;29.80
18160;DHT22;9205;52.032;4.314;2023-08-24T11:35:44;22.40;44.60
18160;DHT22;9205;52.032;4.314;2023-08-24T11:38:12;22.60;47.70
18160;DHT22;9205;52.032;4.314;2023-08-24T11:40:39;22.60;43.00
18160;DHT22;9205;52.032;4.314;2023-08-24T11:43:07;22.40;14.60
18160;DHT22;9205;52.032;4.314;2023-08-24T11:45:36;22.60;17.20
18160;DHT22;9205;52.032;4.314;2023-08-24T11:48:06;22.60;17.00
18160;DHT22;9205;52.032;4.314;2023-08-24T11:50:35;22.60;13.90
18160;DHT22;9205;52.032;4.314;2023-08-24T11:53:06;22.70;16.00
18160;DHT22;9205;52.032;4.314;2023-08-24T11:55:34;22.80;25.50
18160;DHT22;9205;52.032;4.314;2023-08-24T11:58:14;22.80;21.50
18160;DHT22;9205;52.032;4.314;2023-08-24T12:00:44;22.90;1.00
18160;DHT22;9205;52.032;4.314;2023-08-24T12:03:12;23.00;1.00
18160;DHT22;9205;52.032;4.314;2023-08-24T12:05:40;23.20;1.00
18160;DHT22;9205;52.032;4.314;2023-08-24T12:08:11;23.40;1.00
18160;DHT22;9205;52.032;4.314;2023-08-24T12:10:42;23.30;1.00
18160;DHT22;9205;52.032;4.314;2023-08-24T12:13:09;23.30;1.00
18160;DHT22;9205;52.032;4.314;2023-08-24T12:15:40;23.40;1.00
18160;DHT22;9205;52.032;4.314;2023-08-24T12:18:10;23.60;1.00
18160;DHT22;9205;52.032;4.314;2023-08-24T12:20:40;24.00;1.00
18160;DHT22;9205;52.032;4.314;2023-08-24T12:23:09;24.10;1.00
18160;DHT22;9205;52.032;4.314;2023-08-24T12:25:38;24.30;1.00
18160;DHT22;9205;52.032;4.314;2023-08-24T12:28:09;24.30;1.00
18160;DHT22;9205;52.032;4.314;2023-08-24T12:30:46;24.40;1.00
18160;DHT22;9205;52.032;4.314;2023-08-24T12:33:24;24.30;1.00
18160;DHT22;9205;52.032;4.314;2023-08-24T12:35:52;24.30;1.00
18160;DHT22;9205;52.032;4.314;2023-08-24T12:38:21;24.40;1.00
18160;DHT22;9205;52.032;4.314;2023-08-24T12:40:49;24.00;1.00
18160;DHT22;9205;52.032;4.314;2023-08-24T12:43:17;24.00;1.00
18160;DHT22;9205;52.032;4.314;2023-08-24T12:45:45;24.00;1.00
18160;DHT22;9205;52.032;4.314;2023-08-24T12:48:13;24.10;1.00
18160;DHT22;9205;52.032;4.314;2023-08-24T12:50:42;24.10;1.00
18160;DHT22;9205;52.032;4.314;2023-08-24T12:53:09;24.30;1.00
18160;DHT22;9205;52.032;4.314;2023-08-24T12:55:39;24.50;1.00
18160;DHT22;9205;52.032;4.314;2023-08-24T12:58:06;24.70;1.00
18160;DHT22;9205;52.032;4.314;2023-08-24T13:00:34;24.70;1.00
18160;DHT22;9205;52.032;4.314;2023-08-24T13:03:03;24.40;1.00
18160;DHT22;9205;52.032;4.314;2023-08-24T13:05:30;24.40;1.00
18160;DHT22;9205;52.032;4.314;2023-08-24T13:07:57;24.60;1.00
18160;DHT22;9205;52.032;4.314;2023-08-24T13:10:25;24.50;1.00
18160;DHT22;9205;52.032;4.314;2023-08-24T13:12:52;24.50;1.00
18160;DHT22;9205;52.032;4.314;2023-08-24T13:15:19;24.50;1.00
18160;DHT22;9205;52.032;4.314;2023-08-24T13:17:47;24.50;1.00
18160;DHT22;9205;52.032;4.314;2023-08-24T13:20:16;24.60;1.00
18160;DHT22;9205;52.032;4.314;2023-08-24T13:22:43;24.60;1.00
18160;DHT22;9205;52.032;4.314;2023-08-24T13:25:10;24.60;1.00
18160;DHT22;9205;52.032;4.314;2023-08-24T13:27:38;24.70;1.00
18160;DHT22;9205;52.032;4.314;2023-08-24T13:30:06;24.70;1.00
18160;DHT22;9205;52.032;4.314;2023-08-24T13:32:34;24.70;1.00
18160;DHT22;9205;52.032;4.314;2023-08-24T13:35:01;24.80;1.00
18160;DHT22;9205;52.032;4.314;2023-08-24T13:37:30;25.00;1.00
18160;DHT22;9205;52.032;4.314;2023-08-24T13:39:58;25.20;1.00
18160;DHT22;9205;52.032;4.314;2023-08-24T13:42:25;25.10;1.00
18160;DHT22;9205;52.032;4.314;2023-08-24T13:44:52;25.10;1.00
18160;DHT22;9205;52.032;4.314;2023-08-24T13:47:20;25.10;1.00
18160;DHT22;9205;52.032;4.314;2023-08-24T13:49:47;25.30;1.00
18160;DHT22;9205;52.032;4.314;2023-08-24T13:52:14;25.30;1.00
18160;DHT22;9205;52.032;4.314;2023-08-24T13:54:46;25.30;1.00
18160;DHT22;9205;52.032;4.314;2023-08-24T13:57:13;25.30;1.00
18160;DHT22;9205;52.032;4.314;2023-08-24T13:59:40;25.40;1.00
18160;DHT22;9205;52.032;4.314;2023-08-24T14:02:08;25.30;1.00
18160;DHT22;9205;52.032;4.314;2023-08-24T14:04:37;25.10;1.00
18160;DHT22;9205;52.032;4.314;2023-08-24T14:07:04;25.10;1.00
18160;DHT22;9205;52.032;4.314;2023-08-24T14:09:32;25.00;1.00
18160;DHT22;9205;52.032;4.314;2023-08-24T14:12:01;25.00;1.00
18160;DHT22;9205;52.032;4.314;2023-08-24T14:14:28;25.00;1.00
18160;DHT22;9205;52.032;4.314;2023-08-24T14:16:56;24.90;1.00
18160;DHT22;9205;52.032;4.314;2023-08-24T14:19:24;24.90;1.00
18160;DHT22;9205;52.032;4.314;2023-08-24T14:21:52;24.90;1.00
18160;DHT22;9205;52.032;4.314;2023-08-24T14:24:19;25.00;1.00
18160;DHT22;9205;52.032;4.314;2023-08-24T14:26:45;25.00;1.00
18160;DHT22;9205;52.032;4.314;2023-08-24T14:29:14;25.10;1.00
18160;DHT22;9205;52.032;4.314;2023-08-24T14:31:41;25.20;1.00
18160;DHT22;9205;52.032;4.314;2023-08-24T14:34:08;25.30;1.00
18160;DHT22;9205;52.032;4.314;2023-08-24T14:36:36;25.40;1.00
18160;DHT22;9205;52.032;4.314;2023-08-24T14:39:03;25.60;1.00
18160;DHT22;9205;52.032;4.314;2023-08-24T14:41:30;25.70;1.00
18160;DHT22;9205;52.032;4.314;2023-08-24T14:43:57;25.70;1.00
18160;DHT22;9205;52.032;4.314;2023-08-24T14:46:26;25.90;1.00
18160;DHT22;9205;52.032;4.314;2023-08-24T14:48:53;25.80;1.00
18160;DHT22;9205;52.032;4.314;2023-08-24T14:51:20;25.90;1.00
18160;DHT22;9205;52.032;4.314;2023-08-24T14:53:48;25.80;1.00
18160;DHT22;9205;52.032;4.314;2023-08-24T14:56:15;25.70;1.00
18160;DHT22;9205;52.032;4.314;2023-08-24T14:58:42;25.70;1.00
18160;DHT22;9205;52.032;4.314;2023-08-24T15:01:09;25.70;1.00
18160;DHT22;9205;52.032;4.314;2023-08-24T15:03:38;25.60;1.00
18160;DHT22;9205;52.032;4.314;2023-08-24T15:06:05;25.70;1.00
18160;DHT22;9205;52.032;4.314;2023-08-24T15:08:34;25.60;1.00
18160;DHT22;9205;52.032;4.314;2023-08-24T15:11:02;25.50;1.00
18160;DHT22;9205;52.032;4.314;2023-08-24T15:13:30;25.70;1.00
18160;DHT22;9205;52.032;4.314;2023-08-24T15:15:58;25.60;1.00
18160;DHT22;9205;52.032;4.314;2023-08-24T15:18:26;25.50;99.90
18160;DHT22;9205;52.032;4.314;2023-08-24T15:20:54;25.50;99.90
18160;DHT22;9205;52.032;4.314;2023-08-24T15:23:23;25.40;99.90
18160;DHT22;9205;52.032;4.314;2023-08-24T15:25:52;25.30;99.90
18160;DHT22;9205;52.032;4.314;2023-08-24T15:28:21;25.30;99.90
18160;DHT22;9205;52.032;4.314;2023-08-24T15:30:48;25.30;99.90
18160;DHT22;9205;52.032;4.314;2023-08-24T15:33:16;25.20;99.90
18160;DHT22;9205;52.032;4.314;2023-08-24T15:35:44;25.20;99.90
18160;DHT22;9205;52.032;4.314;2023-08-24T15:38:13;25.10;99.90
18160;DHT22;9205;52.032;4.314;2023-08-24T15:40:40;25.20;99.90
18160;DHT22;9205;52.032;4.314;2023-08-24T15:43:07;25.10;99.90
18160;DHT22;9205;52.032;4.314;2023-08-24T15:45:35;25.10;99.90
18160;DHT22;9205;52.032;4.314;2023-08-24T15:48:02;25.00;99.90
18160;DHT22;9205;52.032;4.314;2023-08-24T15:50:30;25.00;99.90
18160;DHT22;9205;52.032;4.314;2023-08-24T15:52:57;25.00;99.90
18160;DHT22;9205;52.032;4.314;2023-08-24T15:55:29;25.00;99.90
18160;DHT22;9205;52.032;4.314;2023-08-24T15:57:58;24.90;1.00
18160;DHT22;9205;52.032;4.314;2023-08-24T16:00:27;25.00;1.00